Agat, GU

10:39 AM ChST on December 28, 2014 (GMT +1000)
Ordot Dump | Change Station
CLOSE
Current Station
Personal Weather Station
Location: Chalan Pago Ordot,
Elevation: 282 ft
Nearby Weather Stations

Elev 282 ft 13.44 °N, 144.75 °E | Updated 10 seconds ago

Overcast
Overcast
81.9 °F
Feels Like 91 °F
N
4.9
Wind Variable Wind from ESE
Gusts 11.0 mph

Today
High -- | Low -- °F
--% Chance of Precip.
Yesterday
High -- | Low -- °F
Precip. -- in
6:42 AM 6:03 PM
Waxing Crescent, 41% visible
Pressure 29.87 in
Visibility 10.0 miles
Clouds Few 2100 ft
Scattered Clouds 2900 ft
Overcast 3900 ft
Heat Index 91 °F
Dew Point 79 °F
Humidity 91%
Rainfall 0.89 in
Snow Depth Not available.
UV 2 out of 12
Pollen Not available.
Air Quality Not available.
Flu Activity Not available.
METAR PGUM 272354Z COR 09016G23KT 10SM FEW021 SCT029 OVC039 28/25 A2990 RMK AO2 RAE19 SLP115 P0006 60067 T02830250 10283 20250 50009

More Conditions Fewer Conditions

Pressure 29.87 in
Visibility 10.0 miles
Clouds Few 2100 ft
Scattered Clouds 2900 ft
Overcast 3900 ft
Heat Index 91 °F
Dew Point 79 °F
Humidity 91%
Rainfall 0.89 in
Snow Depth Not available.
UV 2 out of 12
Pollen Not available.
Air Quality Not available.
Flu Activity Not available.
METAR PGUM 272354Z COR 09016G23KT 10SM FEW021 SCT029 OVC039 28/25 A2990 RMK AO2 RAE19 SLP115 P0006 60067 T02830250 10283 20250 50009

More Conditions Fewer Conditions

10-Day Weather Forecast

Almanac

Astronomy

Dec. 28, 2014 Rise Set
Actual Time
Civil Twilight
Nautical Twilight
Astronomical Twilight
Moon
Length of Visible Light
Length of Day
Tomorrow will be .
, % of the Moon is Illuminated

Today's Extremes

State Highs State Lows

Community

WunderPhotos

Upload Photos

1,781,116 photos uploaded!

WunderBlogs® & News

Nearby

Air Quality

  Air Quality AQ Index Pollutant
Not available.

Snow Depth

Station Depth Elevation

Earthquake Activity

City Distance Mag. Time & Date
Minimum magnitude displayed is 2.5.

Coastal Water Temperatures

Place Temperature

Nearby Weather Stations